createdAt,value
2022-09-13T00:01:54.054Z,83.40
2022-09-13T00:04:10.988Z,84.58
2022-09-13T00:06:27.797Z,83.75
2022-09-13T00:08:44.685Z,84.20
2022-09-13T00:11:01.581Z,84.65
2022-09-13T00:13:18.493Z,84.14
2022-09-13T00:15:35.353Z,84.51
2022-09-13T00:17:52.319Z,83.77
2022-09-13T00:20:09.571Z,84.62
2022-09-13T00:22:26.540Z,83.97
2022-09-13T00:24:43.411Z,83.62
2022-09-13T00:27:00.476Z,83.58
2022-09-13T00:29:17.454Z,84.33
2022-09-13T00:31:34.649Z,83.71
2022-09-13T00:33:51.601Z,83.96
2022-09-13T00:36:08.607Z,83.77
2022-09-13T00:38:25.514Z,84.58
2022-09-13T00:40:42.414Z,83.58
2022-09-13T00:42:59.269Z,83.76
2022-09-13T00:45:16.280Z,84.85
2022-09-13T00:47:33.233Z,83.39
2022-09-13T00:49:52.898Z,83.81
2022-09-13T00:52:09.829Z,85.22
2022-09-13T00:54:26.698Z,83.82
2022-09-13T00:56:43.776Z,83.36
2022-09-13T00:59:00.632Z,83.02
2022-09-13T01:01:20.180Z,84.17
2022-09-13T01:03:37.165Z,83.89
2022-09-13T01:05:54.127Z,84.62
2022-09-13T01:08:11.072Z,83.68
2022-09-13T01:10:31.037Z,83.60
2022-09-13T01:12:47.912Z,83.43
2022-09-13T01:15:04.764Z,83.24
2022-09-13T01:17:21.593Z,83.86
2022-09-13T01:19:38.469Z,84.08
2022-09-13T01:21:55.494Z,84.70
2022-09-13T01:24:12.321Z,84.14
2022-09-13T01:26:29.203Z,84.58
2022-09-13T01:28:46.427Z,83.33
2022-09-13T01:31:03.272Z,83.92
2022-09-13T01:33:20.182Z,84.64
2022-09-13T01:35:37.046Z,85.21
2022-09-13T01:37:54.059Z,84.74
2022-09-13T01:40:11.992Z,84.85
2022-09-13T01:42:29.006Z,84.25
2022-09-13T01:44:45.984Z,84.99
2022-09-13T01:47:03.171Z,84.63
2022-09-13T01:49:20.401Z,85.35
2022-09-13T01:51:37.638Z,85.28
2022-09-13T01:53:55.564Z,85.21
2022-09-13T01:56:12.669Z,85.44
2022-09-13T01:58:29.843Z,85.32
2022-09-13T02:00:46.815Z,85.44
2022-09-13T02:03:04.085Z,84.93
2022-09-13T02:05:21.181Z,85.54
2022-09-13T02:07:38.081Z,85.66
2022-09-13T02:09:54.989Z,85.45
2022-09-13T02:12:11.989Z,85.63
2022-09-13T02:14:28.899Z,84.04
2022-09-13T02:16:45.830Z,84.41
2022-09-13T02:19:03.436Z,85.28
2022-09-13T02:21:20.282Z,85.66
2022-09-13T02:23:37.195Z,84.94
2022-09-13T02:25:54.353Z,84.62
2022-09-13T02:28:11.176Z,85.02
2022-09-13T02:30:28.068Z,85.53
2022-09-13T02:32:44.920Z,85.64
2022-09-13T02:35:01.780Z,85.33
2022-09-13T02:37:20.803Z,85.41
2022-09-13T02:39:39.765Z,85.29
2022-09-13T02:41:56.642Z,86.15
2022-09-13T02:44:13.536Z,85.40
2022-09-13T02:46:30.446Z,85.91
2022-09-13T02:48:47.451Z,86.02
2022-09-13T02:51:04.468Z,85.08
2022-09-13T02:53:21.372Z,85.75
2022-09-13T02:55:38.237Z,84.82
2022-09-13T02:57:55.320Z,86.19
2022-09-13T03:00:12.146Z,86.16
2022-09-13T03:02:29.025Z,85.55
2022-09-13T03:04:45.905Z,86.26
2022-09-13T03:07:02.720Z,85.44
2022-09-13T03:09:19.606Z,85.55
2022-09-13T03:11:36.462Z,85.60
2022-09-13T03:13:53.426Z,86.04
2022-09-13T03:16:10.308Z,85.60
2022-09-13T03:18:27.203Z,86.16
2022-09-13T03:20:44.086Z,85.95
2022-09-13T03:23:01.180Z,85.60
2022-09-13T03:25:18.020Z,85.96
2022-09-13T03:27:35.005Z,85.47
2022-09-13T03:29:51.842Z,85.62
2022-09-13T03:32:08.755Z,86.17
2022-09-13T03:34:25.613Z,86.50
2022-09-13T03:36:42.459Z,86.03
2022-09-13T03:38:59.389Z,85.75
2022-09-13T03:41:16.219Z,86.39
2022-09-13T03:43:33.195Z,86.43
2022-09-13T03:45:50.111Z,85.97
2022-09-13T03:48:06.967Z,86.25
2022-09-13T03:50:23.795Z,86.08
2022-09-13T03:52:45.840Z,86.95
2022-09-13T03:55:03.460Z,86.78
2022-09-13T03:57:22.418Z,86.48
2022-09-13T03:59:39.317Z,86.86
2022-09-13T04:01:56.190Z,86.14
2022-09-13T04:04:13.087Z,86.78
2022-09-13T04:06:29.920Z,86.90
2022-09-13T04:08:46.815Z,87.42
2022-09-13T04:11:03.636Z,87.03
2022-09-13T04:13:20.653Z,87.05
2022-09-13T04:15:37.512Z,87.11
2022-09-13T04:17:54.390Z,86.59
2022-09-13T04:20:11.264Z,87.20
2022-09-13T04:22:28.303Z,86.99
2022-09-13T04:24:45.151Z,86.37
2022-09-13T04:27:02.019Z,86.85
2022-09-13T04:29:18.859Z,87.14
2022-09-13T04:31:35.727Z,87.36
2022-09-13T04:33:52.628Z,86.96
2022-09-13T04:36:09.668Z,87.63
2022-09-13T04:38:26.533Z,86.89
2022-09-13T04:40:43.402Z,86.61
2022-09-13T04:43:00.212Z,87.95
2022-09-13T04:45:17.215Z,86.85
2022-09-13T04:47:34.113Z,87.22
2022-09-13T04:49:50.968Z,86.66
2022-09-13T04:52:07.836Z,87.07
2022-09-13T04:54:24.715Z,86.95
2022-09-13T04:56:41.604Z,86.45
2022-09-13T04:58:58.468Z,86.39
2022-09-13T05:01:15.482Z,86.95
2022-09-13T05:03:32.538Z,87.57
2022-09-13T05:05:49.413Z,86.20
2022-09-13T05:08:06.281Z,87.31
2022-09-13T05:10:23.110Z,86.63
2022-09-13T05:12:39.917Z,86.71
2022-09-13T05:14:56.774Z,86.18
2022-09-13T05:17:13.633Z,86.66
2022-09-13T05:19:30.442Z,86.68
2022-09-13T05:21:47.303Z,87.06
2022-09-13T05:24:04.136Z,86.99
2022-09-13T05:26:20.973Z,85.79
2022-09-13T05:28:37.860Z,87.27
2022-09-13T05:30:54.806Z,86.59
2022-09-13T05:33:11.702Z,87.60
2022-09-13T05:35:28.514Z,88.13
2022-09-13T05:37:45.581Z,87.04
2022-09-13T05:40:17.828Z,88.09
2022-09-13T05:42:34.789Z,86.88
2022-09-13T05:44:51.715Z,88.13
2022-09-13T05:47:08.605Z,87.47
2022-09-13T05:49:25.454Z,87.21
2022-09-13T05:51:42.290Z,88.07
2022-09-13T05:53:59.150Z,88.38
2022-09-13T05:56:16.814Z,88.62
2022-09-13T05:58:33.758Z,87.66
2022-09-13T06:00:50.611Z,88.83
2022-09-13T06:03:07.517Z,88.79
2022-09-13T06:05:26.671Z,88.02
2022-09-13T06:07:45.501Z,87.18
2022-09-13T06:10:02.340Z,88.54
2022-09-13T06:12:19.155Z,87.45
2022-09-13T06:14:36.011Z,87.85
2022-09-13T06:16:52.836Z,88.87
2022-09-13T06:19:09.911Z,86.73
2022-09-13T06:21:29.183Z,87.90
2022-09-13T06:23:46.211Z,87.94
2022-09-13T06:26:03.037Z,88.12
2022-09-13T06:28:21.273Z,87.98
2022-09-13T06:30:38.206Z,86.99
2022-09-13T06:32:55.250Z,86.62
2022-09-13T06:35:12.085Z,87.98
2022-09-13T06:37:28.911Z,86.62
2022-09-13T06:39:45.947Z,87.32
2022-09-13T06:42:02.867Z,86.62
2022-09-13T06:44:20.723Z,86.20
2022-09-13T06:46:37.954Z,87.35
2022-09-13T06:48:54.819Z,87.22
2022-09-13T06:51:11.806Z,87.47
2022-09-13T06:53:28.653Z,87.14
2022-09-13T06:55:45.636Z,85.94
2022-09-13T06:58:02.471Z,86.08
2022-09-13T07:00:19.271Z,86.43
2022-09-13T07:02:36.098Z,85.88
2022-09-13T07:04:53.068Z,87.14
2022-09-13T07:07:09.863Z,86.26
2022-09-13T07:09:26.708Z,87.23
2022-09-13T07:11:44.567Z,86.91
2022-09-13T07:14:01.447Z,86.55
2022-09-13T07:16:19.337Z,86.22
2022-09-13T07:18:36.176Z,86.54
2022-09-13T07:20:53.184Z,86.58
2022-09-13T07:23:14.741Z,86.92
2022-09-13T07:25:32.327Z,85.63
2022-09-13T07:27:49.346Z,86.14
2022-09-13T07:30:06.184Z,85.29
2022-09-13T07:32:23.002Z,85.79
2022-09-13T07:34:39.857Z,84.98
2022-09-13T07:36:56.682Z,85.46
2022-09-13T07:39:16.365Z,86.11
2022-09-13T07:41:34.100Z,84.32
2022-09-13T07:43:51.033Z,83.97
2022-09-13T07:46:07.947Z,84.30
2022-09-13T07:48:24.827Z,83.23
2022-09-13T07:50:41.731Z,83.27
2022-09-13T07:52:58.568Z,83.00
2022-09-13T07:55:15.424Z,82.99
2022-09-13T07:57:32.422Z,82.53
2022-09-13T07:59:49.321Z,82.17
2022-09-13T08:02:06.244Z,80.99
2022-09-13T08:04:23.165Z,80.90
2022-09-13T08:06:40.005Z,80.13
2022-09-13T08:08:56.815Z,80.18
2022-09-13T08:11:13.700Z,80.22
2022-09-13T08:13:30.495Z,79.46
2022-09-13T08:15:47.397Z,79.30
2022-09-13T08:18:04.355Z,80.18
2022-09-13T08:20:21.345Z,78.80
2022-09-13T08:22:38.403Z,78.61
2022-09-13T08:24:55.234Z,79.56
2022-09-13T08:27:12.081Z,78.92
2022-09-13T08:29:28.922Z,78.93
2022-09-13T08:31:45.903Z,79.12
2022-09-13T08:34:02.763Z,79.22
2022-09-13T08:36:19.776Z,78.38
2022-09-13T08:38:36.594Z,76.15
2022-09-13T08:40:53.587Z,74.99
2022-09-13T08:43:10.433Z,74.29
2022-09-13T08:45:27.251Z,76.70
2022-09-13T08:47:44.115Z,77.58
2022-09-13T08:50:01.043Z,76.98
2022-09-13T08:52:17.865Z,76.86
2022-09-13T08:54:34.702Z,77.88
2022-09-13T08:56:51.545Z,76.67
2022-09-13T08:59:08.429Z,76.96
2022-09-13T09:01:25.369Z,76.03
2022-09-13T09:03:42.299Z,75.10
2022-09-13T09:05:59.306Z,76.09
2022-09-13T09:08:16.147Z,74.92
2022-09-13T09:10:33.005Z,73.20
2022-09-13T09:12:50.027Z,72.10
2022-09-13T09:15:06.851Z,72.76
2022-09-13T09:17:23.707Z,72.03
2022-09-13T09:19:40.591Z,72.63
2022-09-13T09:21:57.411Z,72.48
2022-09-13T09:24:14.251Z,72.44
2022-09-13T09:26:31.124Z,73.03
2022-09-13T09:28:47.933Z,73.61
2022-09-13T09:31:04.797Z,72.72
2022-09-13T09:33:21.784Z,73.36
2022-09-13T09:35:38.596Z,74.41
2022-09-13T09:37:55.465Z,75.28
2022-09-13T09:40:12.340Z,74.86
2022-09-13T09:42:29.363Z,75.20
2022-09-13T09:44:46.215Z,73.60
2022-09-13T09:47:03.096Z,74.23
2022-09-13T09:49:20.077Z,75.16
2022-09-13T09:51:36.977Z,74.27
2022-09-13T09:53:54.058Z,74.66
2022-09-13T09:56:10.963Z,75.66
2022-09-13T09:58:27.988Z,74.56
2022-09-13T10:00:44.894Z,74.61
2022-09-13T10:03:01.711Z,76.81
2022-09-13T10:05:18.537Z,79.55
2022-09-13T10:07:35.458Z,78.92
2022-09-13T10:09:52.316Z,80.67
2022-09-13T10:12:09.159Z,82.08
2022-09-13T10:14:26.161Z,80.72
2022-09-13T10:16:43.118Z,82.08
2022-09-13T10:19:00.019Z,82.26
2022-09-13T10:21:16.895Z,82.41
2022-09-13T10:23:33.734Z,85.50
2022-09-13T10:25:50.642Z,83.73
2022-09-13T10:28:07.502Z,83.24
2022-09-13T10:30:24.711Z,84.42
2022-09-13T10:32:41.767Z,84.85
2022-09-13T10:34:58.628Z,83.88
2022-09-13T10:37:15.573Z,87.49
2022-09-13T10:39:32.499Z,87.15
2022-09-13T10:41:51.304Z,87.48
2022-09-13T10:44:09.853Z,88.04
2022-09-13T10:46:26.881Z,86.92
2022-09-13T10:48:43.988Z,88.72
2022-09-13T10:51:01.002Z,88.04
2022-09-13T10:53:17.876Z,88.32
2022-09-13T10:55:34.731Z,88.74
2022-09-13T10:57:51.642Z,88.30
2022-09-13T11:00:08.628Z,88.03
2022-09-13T11:02:25.631Z,88.41
2022-09-13T11:04:42.507Z,89.20
2022-09-13T11:07:01.928Z,88.14
2022-09-13T11:09:19.152Z,87.31
2022-09-13T11:11:35.981Z,86.06
2022-09-13T11:13:52.880Z,87.56
2022-09-13T11:16:10.158Z,86.85
2022-09-13T11:18:27.077Z,86.04
2022-09-13T11:20:44.034Z,87.98
2022-09-13T11:23:00.935Z,88.96
2022-09-13T11:25:17.828Z,89.29
2022-09-13T11:27:34.707Z,87.83
2022-09-13T11:29:52.630Z,87.16
2022-09-13T11:32:09.633Z,86.10
2022-09-13T11:34:26.576Z,85.33
2022-09-13T11:36:43.498Z,85.79
2022-09-13T11:39:00.454Z,84.75
2022-09-13T11:41:20.145Z,84.43
2022-09-13T11:43:37.172Z,83.12
2022-09-13T11:45:54.138Z,82.11
2022-09-13T11:48:11.368Z,76.89
2022-09-13T11:50:28.419Z,76.98
2022-09-13T11:52:45.333Z,77.03
2022-09-13T11:55:02.307Z,76.54
2022-09-13T11:57:19.210Z,76.96
2022-09-13T11:59:36.133Z,75.76
2022-09-13T12:01:53.105Z,75.43
2022-09-13T12:04:12.423Z,75.41
2022-09-13T12:06:29.419Z,75.34
2022-09-13T12:08:46.551Z,76.96
2022-09-13T12:11:06.337Z,75.83
2022-09-13T12:13:26.283Z,75.35
2022-09-13T12:15:43.190Z,75.19
2022-09-13T12:18:00.356Z,71.98
2022-09-13T12:20:17.347Z,72.91
2022-09-13T12:22:34.246Z,72.97
2022-09-13T12:24:51.337Z,70.06
2022-09-13T12:27:08.177Z,72.55
2022-09-13T12:29:25.056Z,69.16
2022-09-13T12:31:42.365Z,67.12
2022-09-13T12:33:59.306Z,68.00
2022-09-13T12:36:16.216Z,66.10
2022-09-13T12:38:33.101Z,66.54
2022-09-13T12:40:50.218Z,66.75
2022-09-13T12:43:07.272Z,67.12
2022-09-13T12:45:24.581Z,66.85
2022-09-13T12:47:41.482Z,66.69
2022-09-13T12:50:01.769Z,66.53
2022-09-13T12:52:26.681Z,66.99
2022-09-13T12:54:43.593Z,67.48
2022-09-13T12:57:00.576Z,68.49
2022-09-13T12:59:17.637Z,68.13
2022-09-13T13:01:34.675Z,69.17
2022-09-13T13:03:51.668Z,69.67
2022-09-13T13:06:11.542Z,70.49
2022-09-13T13:08:28.384Z,71.62
2022-09-13T13:10:45.363Z,71.58
2022-09-13T13:13:02.278Z,72.77
2022-09-13T13:15:19.308Z,74.00
2022-09-13T13:17:36.427Z,74.57
2022-09-13T13:19:53.359Z,73.78
2022-09-13T13:22:10.402Z,73.39
2022-09-13T13:24:27.359Z,74.66
2022-09-13T13:26:44.332Z,74.02
2022-09-13T13:29:01.167Z,74.13
2022-09-13T13:31:18.003Z,74.44
2022-09-13T13:35:55.305Z,75.96
2022-09-13T13:38:12.415Z,76.88
2022-09-13T13:40:29.372Z,75.95
2022-09-13T13:42:46.264Z,74.40
2022-09-13T13:45:04.711Z,76.42
2022-09-13T13:49:53.872Z,75.97
2022-09-13T13:52:10.741Z,76.23
2022-09-13T13:54:27.576Z,77.67
2022-09-13T13:56:44.567Z,76.80
2022-09-13T13:59:01.443Z,77.13
2022-09-13T14:01:18.640Z,75.75
2022-09-13T14:03:35.895Z,74.83
2022-09-13T14:05:53.111Z,76.92
2022-09-13T14:08:10.264Z,75.85
2022-09-13T14:10:27.187Z,76.32
2022-09-13T14:12:44.350Z,76.38
2022-09-13T14:15:01.303Z,75.22
2022-09-13T14:17:18.552Z,76.27
2022-09-13T14:19:35.627Z,76.20
2022-09-13T14:21:52.681Z,76.89
2022-09-13T14:24:09.881Z,76.42
2022-09-13T14:26:26.945Z,76.58
2022-09-13T14:28:44.184Z,76.60
2022-09-13T14:31:01.234Z,77.24
2022-09-13T14:33:18.642Z,75.92
2022-09-13T14:35:36.559Z,76.63
2022-09-13T14:37:54.648Z,76.83
2022-09-13T14:40:11.616Z,77.26
2022-09-13T14:42:29.036Z,77.88
2022-09-13T14:44:45.972Z,76.68
2022-09-13T14:47:03.045Z,76.91
2022-09-13T14:49:20.542Z,77.90
2022-09-13T14:51:37.812Z,77.24
2022-09-13T14:53:54.856Z,77.53
2022-09-13T14:56:11.864Z,77.85
2022-09-13T14:58:28.947Z,77.91
2022-09-13T15:00:45.914Z,77.17
2022-09-13T15:03:03.266Z,78.04
2022-09-13T15:05:20.333Z,77.69
2022-09-13T15:07:37.421Z,80.31
2022-09-13T15:09:54.369Z,79.65
2022-09-13T15:12:14.402Z,79.20
2022-09-13T15:14:31.636Z,79.91
2022-09-13T15:16:48.851Z,78.19
2022-09-13T15:19:05.819Z,79.64
2022-09-13T15:21:24.717Z,79.07
2022-09-13T15:23:42.097Z,79.09
2022-09-13T15:25:59.164Z,78.97
2022-09-13T15:28:16.428Z,78.62
2022-09-13T15:30:33.498Z,77.73
2022-09-13T15:32:51.532Z,78.93
2022-09-13T15:35:08.508Z,78.54
2022-09-13T15:37:25.820Z,79.42
2022-09-13T15:39:48.140Z,78.89
2022-09-13T15:42:05.670Z,78.81
2022-09-13T15:44:22.747Z,77.55
2022-09-13T15:46:39.822Z,78.90
2022-09-13T15:48:57.105Z,78.61
2022-09-13T15:51:13.989Z,79.20
2022-09-13T15:53:31.082Z,78.74
2022-09-13T15:55:49.219Z,78.78
2022-09-13T15:58:07.481Z,79.48
2022-09-13T16:00:24.534Z,79.73
2022-09-13T16:02:41.876Z,80.47
2022-09-13T16:04:58.796Z,80.20
2022-09-13T16:07:16.960Z,79.72
2022-09-13T16:09:34.014Z,80.37
2022-09-13T16:11:51.077Z,79.45
2022-09-13T16:14:07.945Z,79.69
2022-09-13T16:16:24.965Z,80.02
2022-09-13T16:18:41.972Z,82.29
2022-09-13T16:20:59.369Z,80.77
2022-09-13T16:23:16.466Z,81.14
2022-09-13T16:25:33.307Z,80.40
2022-09-13T16:27:50.524Z,81.88
2022-09-13T16:30:07.437Z,82.08
2022-09-13T16:32:24.492Z,81.21
2022-09-13T16:34:41.724Z,81.64
2022-09-13T16:36:59.015Z,81.77
2022-09-13T16:39:16.116Z,80.70
2022-09-13T16:41:33.387Z,82.10
2022-09-13T16:43:50.389Z,81.45
2022-09-13T16:46:09.388Z,82.62
2022-09-13T16:48:26.696Z,81.58
2022-09-13T16:50:43.965Z,83.43
2022-09-13T16:53:00.892Z,82.75
2022-09-13T16:55:17.904Z,84.30
2022-09-13T16:57:34.864Z,83.53
2022-09-13T16:59:51.756Z,83.28
2022-09-13T17:02:09.263Z,83.48
2022-09-13T17:04:26.737Z,83.07
2022-09-13T17:06:46.703Z,84.41
2022-09-13T17:09:03.708Z,83.67
2022-09-13T17:11:21.009Z,83.57
2022-09-13T17:13:38.216Z,83.95
2022-09-13T17:15:56.820Z,84.59
2022-09-13T17:18:14.187Z,83.38
2022-09-13T17:20:31.426Z,84.66
2022-09-13T17:22:48.375Z,84.42
2022-09-13T17:25:05.690Z,84.30
2022-09-13T17:27:22.955Z,84.83
2022-09-13T17:29:39.810Z,85.67
2022-09-13T17:31:56.650Z,86.17
2022-09-13T17:34:13.612Z,86.98
2022-09-13T17:36:30.486Z,86.38
2022-09-13T17:38:47.516Z,85.68
2022-09-13T17:41:04.758Z,86.01
2022-09-13T17:43:21.990Z,86.18
2022-09-13T17:45:39.029Z,87.19
2022-09-13T17:47:56.954Z,86.41
2022-09-13T17:50:13.823Z,86.84
2022-09-13T17:52:34.777Z,86.08
2022-09-13T17:54:52.211Z,85.89
2022-09-13T17:57:09.499Z,86.35
2022-09-13T17:59:26.743Z,86.72
2022-09-13T18:01:43.829Z,87.39
2022-09-13T18:04:00.939Z,88.23
2022-09-13T18:06:17.954Z,87.82
2022-09-13T18:08:35.283Z,87.98
2022-09-13T18:11:12.273Z,87.56
2022-09-13T18:13:29.455Z,87.62
2022-09-13T18:15:46.524Z,88.61
2022-09-13T18:18:03.438Z,88.96
2022-09-13T18:20:20.384Z,89.10
2022-09-13T18:22:37.647Z,88.10
2022-09-13T18:24:54.889Z,88.89
2022-09-13T18:27:11.875Z,89.67
2022-09-13T18:29:29.878Z,89.02
2022-09-13T18:31:47.081Z,88.87
2022-09-13T18:34:04.377Z,89.92
2022-09-13T18:36:21.563Z,89.95
2022-09-13T18:38:38.543Z,90.71
2022-09-13T18:40:55.534Z,90.64
2022-09-13T18:43:13.433Z,90.19
2022-09-13T18:45:30.451Z,90.41
2022-09-13T18:47:47.394Z,89.94
2022-09-13T18:50:04.367Z,90.76
2022-09-13T18:52:21.285Z,90.42
2022-09-13T18:54:38.556Z,90.66
2022-09-13T18:56:55.429Z,91.24
2022-09-13T18:59:12.611Z,91.35
2022-09-13T19:01:29.667Z,91.08
2022-09-13T19:03:47.037Z,91.08
2022-09-13T19:06:06.270Z,91.31
2022-09-13T19:08:23.337Z,91.00
2022-09-13T19:10:40.246Z,91.67
2022-09-13T19:12:57.243Z,91.38
2022-09-13T19:15:15.237Z,90.85
2022-09-13T19:17:32.147Z,90.52
2022-09-13T19:19:49.192Z,91.30
2022-09-13T19:22:06.196Z,91.82
2022-09-13T19:24:23.313Z,91.12
2022-09-13T19:26:40.537Z,91.01
2022-09-13T19:28:57.842Z,90.84
2022-09-13T19:31:14.945Z,91.80
2022-09-13T19:33:32.337Z,92.21
2022-09-13T19:35:49.236Z,91.44
2022-09-13T19:38:06.197Z,92.83
2022-09-13T19:40:24.248Z,91.22
2022-09-13T19:42:41.266Z,91.38
2022-09-13T19:44:58.498Z,92.11
2022-09-13T19:49:52.789Z,92.68
2022-09-13T19:52:10.078Z,92.62
2022-09-13T19:54:27.371Z,91.86
2022-09-13T19:56:44.624Z,92.33
2022-09-13T19:59:01.686Z,93.09
2022-09-13T20:01:18.971Z,91.92
2022-09-13T20:03:36.281Z,93.15
2022-09-13T20:05:53.137Z,92.38
2022-09-13T20:08:11.150Z,93.47
2022-09-13T20:10:28.052Z,92.92
2022-09-13T20:12:45.267Z,92.52
2022-09-13T20:15:03.495Z,93.10
2022-09-13T20:17:20.795Z,93.20
2022-09-13T20:19:43.526Z,93.81
2022-09-13T20:22:00.573Z,94.95
2022-09-13T20:24:17.612Z,93.78
2022-09-13T20:26:35.055Z,94.60
2022-09-13T20:28:52.098Z,93.63
2022-09-13T20:31:09.204Z,91.86
2022-09-13T20:33:26.269Z,93.27
2022-09-13T20:35:43.614Z,93.51
2022-09-13T20:38:00.643Z,93.05
2022-09-13T20:40:17.756Z,93.54
2022-09-13T20:42:34.875Z,93.36
2022-09-13T20:44:53.162Z,93.50
2022-09-13T20:47:10.195Z,94.34
2022-09-13T20:49:27.086Z,93.40
2022-09-13T20:51:44.140Z,94.58
2022-09-13T20:54:01.030Z,93.19
2022-09-13T20:56:17.952Z,92.64
2022-09-13T20:58:35.381Z,93.96
2022-09-13T21:00:52.376Z,95.16
2022-09-13T21:03:09.320Z,93.45
2022-09-13T21:05:26.372Z,93.88
2022-09-13T21:07:43.416Z,94.40
2022-09-13T21:10:00.716Z,93.64
2022-09-13T21:12:17.670Z,95.13
2022-09-13T21:14:34.628Z,94.80
2022-09-13T21:16:51.661Z,93.42
2022-09-13T21:19:10.068Z,94.10
2022-09-13T21:21:27.295Z,95.80
2022-09-13T21:23:44.404Z,95.83
2022-09-13T21:26:01.381Z,94.91
2022-09-13T21:28:18.582Z,95.51
2022-09-13T21:30:36.718Z,94.77
2022-09-13T21:32:53.829Z,94.20
2022-09-13T21:35:10.818Z,94.51
2022-09-13T21:37:28.014Z,96.27
2022-09-13T21:39:46.126Z,94.94
2022-09-13T21:42:03.259Z,96.21
2022-09-13T21:44:20.443Z,96.32
2022-09-13T21:46:37.702Z,96.61
2022-09-13T21:48:54.752Z,95.75
2022-09-13T21:51:11.702Z,95.93
2022-09-13T21:53:28.675Z,95.92
2022-09-13T21:55:45.562Z,96.14
2022-09-13T21:58:02.583Z,95.46
2022-09-13T22:00:19.830Z,96.22
2022-09-13T22:02:36.827Z,96.26
2022-09-13T22:04:54.120Z,95.85
2022-09-13T22:07:11.402Z,94.33
2022-09-13T22:09:28.328Z,95.76
2022-09-13T22:11:45.235Z,96.01
2022-09-13T22:14:02.594Z,94.88
2022-09-13T22:16:20.891Z,95.76
2022-09-13T22:18:37.955Z,95.03
2022-09-13T22:20:55.008Z,95.41
2022-09-13T22:23:11.970Z,96.15
2022-09-13T22:25:28.883Z,95.05
2022-09-13T22:27:46.132Z,96.81
2022-09-13T22:30:03.367Z,95.51
2022-09-13T22:32:23.110Z,96.23
2022-09-13T22:34:41.264Z,96.13
2022-09-13T22:36:58.277Z,95.24
2022-09-13T22:39:15.094Z,96.08
2022-09-13T22:41:33.033Z,96.26
2022-09-13T22:43:50.233Z,96.17
2022-09-13T22:46:07.307Z,95.27
2022-09-13T22:48:24.261Z,94.64
2022-09-13T22:50:41.199Z,95.92
2022-09-13T22:52:59.227Z,95.35
2022-09-13T22:55:16.470Z,94.04
2022-09-13T22:57:33.532Z,96.16
2022-09-13T22:59:50.712Z,94.73
2022-09-13T23:02:07.694Z,94.76
2022-09-13T23:04:24.733Z,95.74
2022-09-13T23:06:41.751Z,95.95
2022-09-13T23:08:58.764Z,95.54
2022-09-13T23:11:15.712Z,96.41
2022-09-13T23:13:34.420Z,96.42
2022-09-13T23:15:52.387Z,96.74
2022-09-13T23:18:09.456Z,96.80
2022-09-13T23:20:26.734Z,95.35
2022-09-13T23:22:43.707Z,95.57
2022-09-13T23:25:01.746Z,95.73
2022-09-13T23:27:18.686Z,95.31
2022-09-13T23:29:35.973Z,95.65
2022-09-13T23:31:53.105Z,95.74
2022-09-13T23:34:10.403Z,95.89
2022-09-13T23:36:27.389Z,95.90
2022-09-13T23:38:44.321Z,95.77
2022-09-13T23:41:01.362Z,95.44
2022-09-13T23:43:18.411Z,95.96
2022-09-13T23:45:35.424Z,97.15
2022-09-13T23:47:53.422Z,97.36
2022-09-13T23:50:11.495Z,97.38
2022-09-13T23:52:28.859Z,96.86
2022-09-13T23:54:46.704Z,95.79
2022-09-13T23:57:06.140Z,96.82
2022-09-13T23:59:23.512Z,96.02
